Time;durP1;ratioP1;P1;durP2;ratioP2;P2;SDS_P1;SDS_P2;PMS_P1;PMS_P2;Temp;Humidity;BMP_temperature;BMP_pressure;BME280_temperature;BME280_humidity;BME280_pressure;Samples;Min_cycle;Max_cycle;Signal;HPM_P1;HPM_P2
2022/05/24 00:00:22;;;;;;;7.20;4.13;;;15.90;99.90;;;;;;5050551;28;20017;-52
2022/05/24 00:02:54;;;;;;;4.78;4.05;;;15.90;99.90;;;;;;5050487;28;20480;-52
2022/05/24 00:05:21;;;;;;;9.15;4.65;;;15.90;99.90;;;;;;5050434;28;20025;-54
2022/05/24 00:07:47;;;;;;;9.50;5.07;;;15.90;99.90;;;;;;5050439;28;20024;-49
2022/05/24 00:10:17;;;;;;;4.35;3.50;;;15.80;99.90;;;;;;5050332;28;20028;-53
2022/05/24 00:12:43;;;;;;;6.88;4.40;;;15.80;99.90;;;;;;5050224;28;20025;-52
2022/05/24 00:15:30;;;;;;;5.65;4.32;;;15.80;99.90;;;;;;5050068;28;20029;-53
2022/05/24 00:17:58;;;;;;;6.80;4.35;;;15.80;99.90;;;;;;5050302;28;20027;-50
2022/05/24 00:20:27;;;;;;;10.15;4.93;;;15.80;99.90;;;;;;5048954;28;20040;-54
2022/05/24 00:22:53;;;;;;;7.60;4.47;;;15.80;99.90;;;;;;5050077;28;20372;-51
2022/05/24 00:25:19;;;;;;;13.50;4.57;;;15.80;99.90;;;;;;5050214;28;20021;-55
2022/05/24 00:27:46;;;;;;;4.93;3.67;;;15.80;99.90;;;;;;5050086;28;20049;-53
2022/05/24 00:30:13;;;;;;;3.58;3.22;;;15.90;99.90;;;;;;5050019;28;20040;-50
2022/05/24 00:32:39;;;;;;;9.00;3.97;;;16.00;99.90;;;;;;5050003;28;20043;-55
2022/05/24 00:35:05;;;;;;;5.78;4.03;;;16.00;99.90;;;;;;5050264;28;20375;-50
2022/05/24 00:37:33;;;;;;;10.30;4.10;;;15.80;99.90;;;;;;5050102;28;20340;-54
2022/05/24 00:39:59;;;;;;;4.63;4.22;;;15.70;99.90;;;;;;5051339;28;20108;-54
2022/05/24 00:42:30;;;;;;;6.93;4.10;;;15.70;99.90;;;;;;5054037;28;20112;-52
2022/05/24 00:45:05;;;;;;;6.20;4.25;;;15.80;99.90;;;;;;5054125;28;20063;-51
2022/05/24 00:47:37;;;;;;;11.60;4.10;;;15.80;99.90;;;;;;5054042;28;20051;-51
2022/05/24 00:50:40;;;;;;;5.88;4.22;;;15.80;99.90;;;;;;5054347;28;20496;-48
2022/05/24 00:53:25;;;;;;;7.65;4.50;;;15.80;99.90;;;;;;5031534;28;20063;-53
2022/05/24 00:56:00;;;;;;;5.80;4.40;;;15.80;99.90;;;;;;5052544;28;20033;-52
2022/05/24 00:58:50;;;;;;;6.13;4.60;;;15.80;99.90;;;;;;5052482;28;20465;-55
2022/05/24 01:01:39;;;;;;;10.80;4.65;;;15.80;99.90;;;;;;5053765;28;20037;-54
2022/05/24 01:04:07;;;;;;;6.72;4.47;;;15.70;99.90;;;;;;5053830;28;20021;-55
2022/05/24 01:06:33;;;;;;;10.23;4.50;;;15.70;99.90;;;;;;5052579;28;20017;-55
2022/05/24 01:09:03;;;;;;;4.68;4.10;;;15.80;99.90;;;;;;5053691;28;20035;-53
2022/05/24 01:11:32;;;;;;;4.80;4.40;;;15.80;99.90;;;;;;5053518;28;20481;-52
2022/05/24 01:13:59;;;;;;;6.18;4.32;;;15.80;99.90;;;;;;5053485;28;20159;-52
2022/05/24 01:16:25;;;;;;;11.52;5.32;;;15.80;99.90;;;;;;5053471;28;20029;-54
2022/05/24 01:18:50;;;;;;;6.18;4.88;;;15.80;99.90;;;;;;5053499;28;20476;-55
2022/05/24 01:21:17;;;;;;;6.40;4.30;;;15.70;99.90;;;;;;5052273;28;20028;-53
2022/05/24 01:23:55;;;;;;;5.35;4.85;;;15.80;99.90;;;;;;5053141;28;20052;-53
2022/05/24 01:26:37;;;;;;;15.90;5.57;;;15.90;99.90;;;;;;5052191;28;20025;-53
2022/05/24 01:29:06;;;;;;;8.50;5.65;;;15.90;99.90;;;;;;5052033;28;20028;-50
2022/05/24 01:37:06;;;;;;;4.55;4.13;;;15.80;99.90;;;;;;5053394;28;20024;-52
2022/05/24 01:39:32;;;;;;;7.70;5.30;;;15.70;99.90;;;;;;5053020;28;20021;-52
2022/05/24 01:41:58;;;;;;;11.18;4.28;;;15.70;99.90;;;;;;5053010;28;20098;-54
2022/05/24 01:44:37;;;;;;;7.07;5.20;;;15.70;99.90;;;;;;5053049;28;20028;-47
2022/05/24 01:47:03;;;;;;;7.43;4.38;;;15.70;99.90;;;;;;5053051;28;20021;-54
2022/05/24 01:49:36;;;;;;;5.93;3.55;;;15.70;99.90;;;;;;5052826;28;20028;-48
2022/05/24 01:52:10;;;;;;;6.75;3.40;;;15.70;99.90;;;;;;5052007;28;20484;-52
2022/05/24 01:54:40;;;;;;;9.75;3.22;;;15.70;99.90;;;;;;5052835;28;20021;-52
2022/05/24 01:57:13;;;;;;;11.55;4.20;;;15.70;99.90;;;;;;5052874;28;20028;-54
2022/05/24 01:59:41;;;;;;;4.47;2.97;;;15.70;99.90;;;;;;5052734;28;20024;-53
2022/05/24 02:02:07;;;;;;;5.30;3.72;;;15.70;99.90;;;;;;5052851;28;20071;-49
2022/05/24 02:04:34;;;;;;;5.43;3.33;;;15.80;99.90;;;;;;5052659;28;20514;-55
2022/05/24 02:07:04;;;;;;;5.65;2.92;;;15.70;99.90;;;;;;5052699;28;20523;-53
2022/05/24 02:09:30;;;;;;;3.67;3.13;;;15.70;99.90;;;;;;5052627;28;20025;-50
2022/05/24 02:12:00;;;;;;;9.10;3.50;;;15.70;99.90;;;;;;5052512;28;20131;-54
2022/05/24 02:14:32;;;;;;;6.35;2.92;;;15.70;99.90;;;;;;5052666;28;20029;-51
2022/05/24 02:17:11;;;;;;;3.55;3.25;;;15.80;99.90;;;;;;5052466;28;20013;-49
2022/05/24 02:19:42;;;;;;;6.57;3.83;;;15.80;99.90;;;;;;5052263;28;20100;-51
2022/05/24 02:22:19;;;;;;;3.42;3.13;;;15.80;99.90;;;;;;5052324;28;20036;-51
2022/05/24 02:24:45;;;;;;;5.15;3.33;;;15.70;99.90;;;;;;5052180;28;20170;-52
2022/05/24 02:27:11;;;;;;;7.07;3.90;;;15.70;99.90;;;;;;5052487;28;20028;-49
2022/05/24 02:29:37;;;;;;;7.78;3.22;;;15.60;99.90;;;;;;5052309;28;20052;-50
2022/05/24 02:32:03;;;;;;;5.82;3.00;;;15.70;99.90;;;;;;5051903;28;20384;-51
2022/05/24 02:34:29;;;;;;;5.43;3.17;;;15.60;99.90;;;;;;5052281;28;20539;-54
2022/05/24 02:36:54;;;;;;;2.92;2.63;;;15.60;99.90;;;;;;5051904;28;20107;-50
2022/05/24 02:39:20;;;;;;;2.47;2.13;;;15.70;99.90;;;;;;5052054;28;20056;-54
2022/05/24 02:41:46;;;;;;;3.55;1.83;;;15.70;99.90;;;;;;5051811;28;20108;-54
2022/05/24 02:44:14;;;;;;;3.28;2.15;;;15.80;99.90;;;;;;5051937;28;20129;-51
2022/05/24 02:46:44;;;;;;;3.17;2.25;;;15.80;99.90;;;;;;5051936;28;20029;-50
2022/05/24 02:49:09;;;;;;;5.28;2.70;;;15.80;99.90;;;;;;5051869;28;20021;-53
2022/05/24 02:51:37;;;;;;;5.15;2.28;;;15.80;99.90;;;;;;5051730;28;20035;-53
2022/05/24 02:54:05;;;;;;;8.18;2.50;;;15.80;99.90;;;;;;5051786;28;20552;-50
2022/05/24 02:56:31;;;;;;;4.32;2.35;;;15.70;99.90;;;;;;5051970;28;20078;-50
2022/05/24 02:58:56;;;;;;;7.82;1.90;;;15.80;99.90;;;;;;5051469;28;20017;-53
2022/05/24 03:01:25;;;;;;;4.70;1.95;;;15.80;99.90;;;;;;5051794;28;20492;-53
2022/05/24 03:03:52;;;;;;;5.60;2.08;;;15.80;99.90;;;;;;5050123;28;20021;-55
2022/05/24 03:06:20;;;;;;;3.40;2.17;;;15.80;99.90;;;;;;5051575;28;20017;-50
2022/05/24 03:14:14;;;;;;;5.10;2.30;;;15.70;99.90;;;;;;5051445;28;20036;-51
2022/05/24 03:14:17;;;;;;;6.50;1.95;;;15.70;99.90;;;;;;5051119;28;20387;-51
2022/05/24 03:16:48;;;;;;;4.25;2.00;;;15.60;99.90;;;;;;5051246;28;20017;-54
2022/05/24 03:19:14;;;;;;;3.45;1.70;;;15.60;99.90;;;;;;5051360;28;20113;-53
2022/05/24 03:21:40;;;;;;;9.95;2.20;;;15.60;99.90;;;;;;5051239;28;20043;-54
2022/05/24 03:24:05;;;;;;;3.58;2.20;;;15.60;99.90;;;;;;5050883;28;20045;-53
2022/05/24 03:26:31;;;;;;;5.93;2.08;;;15.60;99.90;;;;;;5051140;28;20028;-51
2022/05/24 03:28:57;;;;;;;7.28;2.75;;;15.60;99.90;;;;;;5049681;28;20037;-54
2022/05/24 03:31:22;;;;;;;4.82;2.10;;;15.60;99.90;;;;;;5050869;28;20332;-54
2022/05/24 03:33:49;;;;;;;4.22;2.42;;;15.50;99.90;;;;;;5050910;28;20008;-52
2022/05/24 03:36:14;;;;;;;2.72;2.40;;;15.60;99.90;;;;;;5050997;28;20020;-55
2022/05/24 03:38:40;;;;;;;6.93;2.25;;;15.50;99.90;;;;;;5050671;28;20028;-54
2022/05/24 03:41:06;;;;;;;3.53;2.20;;;15.50;99.90;;;;;;5051048;28;20384;-52
2022/05/24 03:43:31;;;;;;;7.75;2.67;;;15.50;99.90;;;;;;5050725;28;20021;-51
2022/05/24 03:46:03;;;;;;;4.10;2.50;;;15.50;99.90;;;;;;5050843;28;20290;-53
2022/05/24 03:48:29;;;;;;;6.45;2.55;;;15.50;99.90;;;;;;5051002;28;20021;-53
2022/05/24 03:50:55;;;;;;;8.23;2.08;;;15.60;99.90;;;;;;5049167;28;20104;-50
2022/05/24 03:53:21;;;;;;;10.63;2.25;;;15.50;99.90;;;;;;5049269;28;20155;-48
2022/05/24 03:55:47;;;;;;;5.53;2.38;;;15.50;99.90;;;;;;5050502;28;20111;-52
2022/05/24 03:58:13;;;;;;;5.90;2.55;;;15.50;99.90;;;;;;5050762;28;20619;-55
2022/05/24 04:00:40;;;;;;;4.38;2.00;;;15.50;99.90;;;;;;5050454;28;20484;-55
2022/05/24 04:03:07;;;;;;;8.05;2.45;;;15.50;99.90;;;;;;5050461;28;20029;-53
2022/05/24 04:05:33;;;;;;;8.23;2.50;;;15.40;99.90;;;;;;5050750;28;20025;-51
2022/05/24 04:08:00;;;;;;;2.85;1.85;;;15.50;99.90;;;;;;5050345;28;20484;-54
2022/05/24 04:10:26;;;;;;;2.78;2.10;;;15.50;99.90;;;;;;5050651;28;20044;-53
2022/05/24 04:12:52;;;;;;;6.53;2.47;;;15.60;99.90;;;;;;5050051;28;20502;-52
2022/05/24 04:15:19;;;;;;;8.23;3.10;;;15.60;99.90;;;;;;5050133;28;20059;-49
2022/05/24 04:17:46;;;;;;;5.93;2.63;;;15.50;99.90;;;;;;5048809;28;20104;-52
2022/05/24 04:20:14;;;;;;;9.13;2.80;;;15.60;99.90;;;;;;5050517;28;20028;-53
2022/05/24 04:22:39;;;;;;;4.53;2.22;;;15.60;99.90;;;;;;5048512;28;20393;-53
2022/05/24 04:25:07;;;;;;;5.15;2.45;;;15.70;99.90;;;;;;5050046;28;20082;-53
2022/05/24 04:27:33;;;;;;;5.00;3.17;;;15.70;99.90;;;;;;5050369;28;20033;-50
2022/05/24 04:29:59;;;;;;;7.55;2.92;;;15.80;99.90;;;;;;5049967;28;20039;-51
2022/05/24 04:32:25;;;;;;;7.38;2.70;;;15.80;99.90;;;;;;5050495;28;20094;-50
2022/05/24 04:34:50;;;;;;;6.32;2.35;;;15.90;99.90;;;;;;5050010;28;20033;-53
2022/05/24 04:37:17;;;;;;;6.22;3.05;;;16.00;99.90;;;;;;5048913;28;20032;-48
2022/05/24 04:39:42;;;;;;;6.75;3.60;;;16.10;99.90;;;;;;5049702;28;20037;-53
2022/05/24 04:42:21;;;;;;;5.75;2.70;;;16.00;99.90;;;;;;5050001;28;20075;-53
2022/05/24 04:44:57;;;;;;;8.15;3.22;;;16.00;99.90;;;;;;5049711;28;20028;-51
2022/05/24 04:47:26;;;;;;;9.38;3.42;;;16.10;99.90;;;;;;5050199;28;20029;-53
2022/05/24 04:49:55;;;;;;;6.30;3.33;;;16.00;99.90;;;;;;5049790;28;20021;-55
2022/05/24 04:52:26;;;;;;;5.35;3.03;;;16.10;99.90;;;;;;5049894;28;20037;-49
2022/05/24 04:54:52;;;;;;;6.60;2.53;;;16.30;99.90;;;;;;5049782;28;20052;-50
2022/05/24 04:57:19;;;;;;;4.65;2.65;;;16.40;99.90;;;;;;5049992;28;20084;-50
2022/05/24 04:59:45;;;;;;;7.28;3.15;;;16.40;99.90;;;;;;5049493;28;20021;-49
2022/05/24 05:02:10;;;;;;;9.70;3.10;;;16.40;99.90;;;;;;5049993;28;20021;-54
2022/05/24 05:04:36;;;;;;;7.55;2.92;;;16.40;99.90;;;;;;5049753;28;20426;-51
2022/05/24 05:07:03;;;;;;;4.75;2.90;;;16.40;99.90;;;;;;5049643;28;20714;-53
2022/05/24 05:09:34;;;;;;;6.97;3.22;;;16.40;99.90;;;;;;5049955;28;20082;-50
2022/05/24 05:12:08;;;;;;;4.90;3.05;;;16.50;99.90;;;;;;5049602;28;20360;-48
2022/05/24 05:14:35;;;;;;;11.88;4.25;;;16.60;99.90;;;;;;5049824;28;20457;-55
2022/05/24 05:17:02;;;;;;;5.15;3.60;;;16.80;99.90;;;;;;5049580;28;20414;-51
2022/05/24 05:19:28;;;;;;;5.95;3.40;;;16.80;99.90;;;;;;5049661;28;20029;-51
2022/05/24 05:21:54;;;;;;;5.03;3.33;;;16.80;99.90;;;;;;5049333;28;20388;-55
2022/05/24 05:24:20;;;;;;;11.60;3.58;;;16.80;99.90;;;;;;5049749;28;20098;-51
2022/05/24 05:26:45;;;;;;;12.52;3.25;;;16.80;99.90;;;;;;5050467;28;20025;-52
2022/05/24 05:29:11;;;;;;;7.28;3.38;;;16.90;99.90;;;;;;5053726;28;20404;-50
2022/05/24 05:31:37;;;;;;;6.85;3.15;;;17.00;99.90;;;;;;5053464;28;20071;-53
2022/05/24 05:34:03;;;;;;;6.65;3.75;;;17.00;99.90;;;;;;5053065;28;20021;-52
2022/05/24 05:36:31;;;;;;;5.45;3.60;;;17.10;99.90;;;;;;5053462;28;20021;-53
2022/05/24 05:38:57;;;;;;;7.35;3.95;;;17.10;99.90;;;;;;5052909;28;20044;-54
2022/05/24 05:41:28;;;;;;;3.65;2.80;;;17.20;99.90;;;;;;5053337;28;20009;-50
2022/05/24 05:43:56;;;;;;;8.18;4.45;;;17.40;99.90;;;;;;5053005;28;20021;-53
2022/05/24 05:46:21;;;;;;;9.88;5.03;;;17.50;99.90;;;;;;5053133;28;20024;-53
2022/05/24 05:48:47;;;;;;;8.95;3.40;;;17.60;99.90;;;;;;5052723;28;20476;-54
2022/05/24 05:51:15;;;;;;;14.60;3.30;;;17.70;99.90;;;;;;5053123;28;20508;-52
2022/05/24 05:53:41;;;;;;;8.05;4.18;;;17.90;99.90;;;;;;5052646;28;20104;-50
2022/05/24 05:56:27;;;;;;;11.95;2.80;;;18.10;99.90;;;;;;5053036;28;20053;-52
2022/05/24 05:58:53;;;;;;;10.70;3.25;;;18.20;99.90;;;;;;5052342;28;20087;-53
2022/05/24 06:01:28;;;;;;;4.90;2.60;;;18.30;99.90;;;;;;5053083;28;20354;-52
2022/05/24 06:03:53;;;;;;;7.22;2.38;;;18.20;99.90;;;;;;5052674;28;20068;-52
2022/05/24 06:06:22;;;;;;;5.88;2.47;;;18.10;99.90;;;;;;5052952;28;20025;-49
2022/05/24 06:08:48;;;;;;;5.97;3.55;;;18.20;99.90;;;;;;5052474;28;20237;-50
2022/05/24 06:11:15;;;;;;;23.70;3.22;;;18.20;99.90;;;;;;5053186;28;20021;-54
2022/05/24 06:13:41;;;;;;;8.07;4.30;;;18.20;99.90;;;;;;5052332;28;20020;-52
2022/05/24 06:16:08;;;;;;;8.38;4.30;;;18.20;99.90;;;;;;5052538;28;20397;-51
2022/05/24 06:18:33;;;;;;;8.65;2.67;;;18.20;99.90;;;;;;5052363;28;20024;-49
2022/05/24 06:20:59;;;;;;;6.15;2.28;;;18.30;99.90;;;;;;5052351;28;20025;-52
2022/05/24 06:23:25;;;;;;;10.52;2.28;;;18.40;99.90;;;;;;5052208;28;20057;-54
2022/05/24 06:25:51;;;;;;;10.88;3.22;;;18.30;99.90;;;;;;5052117;28;20059;-50
2022/05/24 06:28:17;;;;;;;5.53;2.25;;;18.40;99.90;;;;;;5052308;28;20025;-53
2022/05/24 06:30:43;;;;;;;4.45;2.10;;;18.60;99.90;;;;;;5052016;28;20025;-54
2022/05/24 06:33:09;;;;;;;6.85;2.53;;;18.70;99.90;;;;;;5050869;28;20091;-50
2022/05/24 06:35:36;;;;;;;3.85;2.03;;;18.60;99.90;;;;;;5052241;28;20575;-53
2022/05/24 06:38:02;;;;;;;2.83;1.85;;;18.70;99.90;;;;;;5050524;28;20021;-55
2022/05/24 06:40:28;;;;;;;6.10;2.38;;;18.70;99.90;;;;;;5052041;28;20260;-52
2022/05/24 06:42:54;;;;;;;3.25;2.17;;;18.90;99.90;;;;;;5051928;28;20033;-54
2022/05/24 06:45:20;;;;;;;2.88;1.83;;;19.10;99.90;;;;;;5052039;28;20055;-53
2022/05/24 06:47:45;;;;;;;5.40;2.35;;;19.00;99.90;;;;;;5051600;28;20028;-54
2022/05/24 06:50:12;;;;;;;8.95;1.83;;;19.00;99.90;;;;;;5052077;28;20147;-54
2022/05/24 06:52:38;;;;;;;3.03;1.75;;;19.30;99.90;;;;;;5051622;28;20108;-56
2022/05/24 06:55:06;;;;;;;11.00;2.22;;;19.50;99.90;;;;;;5051770;28;20108;-55
2022/05/24 06:57:31;;;;;;;7.13;2.20;;;19.60;99.90;;;;;;5051571;28;20049;-54
2022/05/24 07:02:45;;;;;;;3.80;1.75;;;20.10;99.90;;;;;;5051377;28;20035;-54
2022/05/24 07:05:19;;;;;;;6.57;2.38;;;20.10;99.90;;;;;;5051677;28;20079;-53
2022/05/24 07:07:45;;;;;;;6.63;2.17;;;20.30;99.90;;;;;;5051182;28;20647;-53
2022/05/24 07:10:15;;;;;;;6.05;2.60;;;20.10;99.90;;;;;;5051583;28;20048;-53
2022/05/24 07:12:41;;;;;;;8.10;2.30;;;20.10;99.90;;;;;;5051444;28;20468;-53
2022/05/24 07:15:08;;;;;;;3.75;2.05;;;20.10;99.90;;;;;;5051273;28;20025;-53
2022/05/24 07:17:34;;;;;;;6.70;2.30;;;20.10;99.90;;;;;;5051574;28;20025;-53
2022/05/24 07:20:00;;;;;;;8.98;2.60;;;20.30;99.90;;;;;;5051230;28;20025;-51
2022/05/24 07:22:26;;;;;;;7.03;2.55;;;20.60;99.90;;;;;;5051148;28;20051;-52
2022/05/24 07:24:52;;;;;;;8.20;2.92;;;20.40;99.90;;;;;;5050973;28;20025;-54
2022/05/24 07:27:20;;;;;;;10.25;3.28;;;20.50;99.90;;;;;;5049826;28;20029;-53
2022/05/24 07:29:46;;;;;;;8.25;2.70;;;20.50;99.90;;;;;;5051004;28;20024;-53
2022/05/24 07:32:12;;;;;;;7.05;2.75;;;20.50;99.90;;;;;;5050940;28;20025;-51
2022/05/24 07:34:38;;;;;;;7.65;2.53;;;20.50;99.90;;;;;;5051119;28;20025;-56
2022/05/24 07:37:06;;;;;;;5.65;3.05;;;20.60;99.90;;;;;;5049567;28;20064;-52
2022/05/24 07:39:33;;;;;;;8.70;3.50;;;20.60;99.90;;;;;;5051096;28;20024;-54
2022/05/24 07:47:29;;;;;;;5.13;2.70;;;20.70;99.90;;;;;;5051291;28;20688;-53
2022/05/24 07:49:55;;;;;;;5.40;3.05;;;20.90;99.90;;;;;;5049876;28;20021;-51
2022/05/24 07:52:20;;;;;;;7.40;2.40;;;20.70;99.90;;;;;;5050687;28;20072;-51
2022/05/24 07:54:46;;;;;;;5.28;2.78;;;20.70;99.90;;;;;;5050618;28;20123;-53
2022/05/24 07:57:12;;;;;;;7.05;2.97;;;21.00;99.90;;;;;;5050589;28;20447;-54
2022/05/24 07:59:38;;;;;;;4.63;2.53;;;21.20;99.90;;;;;;5050722;28;20053;-53
2022/05/24 08:02:06;;;;;;;7.20;2.67;;;21.10;99.90;;;;;;5050494;28;20036;-52
2022/05/24 08:04:32;;;;;;;8.27;2.80;;;21.30;99.90;;;;;;5050603;28;20033;-53
2022/05/24 08:06:58;;;;;;;6.32;2.80;;;21.30;99.90;;;;;;5050249;28;20112;-54
2022/05/24 08:09:23;;;;;;;6.85;3.53;;;21.50;99.90;;;;;;5050475;28;20079;-54
2022/05/24 08:11:49;;;;;;;7.57;2.75;;;21.60;99.90;;;;;;5050128;28;20025;-54
2022/05/24 08:14:15;;;;;;;2.90;2.25;;;21.70;99.90;;;;;;5050375;28;20021;-54
2022/05/24 08:16:40;;;;;;;16.77;2.25;;;21.70;99.90;;;;;;5050265;28;20045;-50
2022/05/24 08:19:08;;;;;;;4.93;3.05;;;21.80;99.90;;;;;;5050259;28;20017;-55
2022/05/24 08:21:34;;;;;;;12.75;3.17;;;21.60;99.90;;;;;;5050441;28;20021;-55
2022/05/24 08:24:00;;;;;;;28.38;21.10;;;22.00;99.90;;;;;;5049925;28;20122;-52
2022/05/24 08:26:25;;;;;;;8.40;4.53;;;22.30;99.90;;;;;;5050848;28;20032;-53
2022/05/24 08:28:51;;;;;;;13.77;3.78;;;22.30;99.90;;;;;;5049891;28;20112;-53
2022/05/24 08:31:18;;;;;;;7.18;2.92;;;22.10;99.90;;;;;;5050279;28;20384;-55
2022/05/24 08:33:45;;;;;;;11.75;4.00;;;22.10;99.90;;;;;;5050196;28;20547;-54
2022/05/24 08:36:12;;;;;;;9.15;3.50;;;22.10;99.90;;;;;;5050322;28;20164;-55
2022/05/24 08:38:38;;;;;;;12.35;3.22;;;22.20;99.90;;;;;;5050131;28;20017;-55
2022/05/24 08:41:12;;;;;;;7.32;3.67;;;22.20;99.90;;;;;;5050197;28;20021;-53
2022/05/24 08:43:37;;;;;;;;;;;22.40;99.90;;;;;;5050291;28;20017;-54
2022/05/24 08:49:03;;;;;;;6.10;3.15;;;22.40;99.90;;;;;;5049956;28;20077;-49
2022/05/24 08:51:32;;;;;;;6.95;3.13;;;23.00;99.90;;;;;;5050193;28;20018;-54
2022/05/24 08:54:10;;;;;;;5.25;2.97;;;23.30;99.90;;;;;;5049830;28;20021;-56
2022/05/24 08:56:57;;;;;;;10.52;3.20;;;23.20;99.90;;;;;;5050049;28;20476;-55
2022/05/24 08:59:32;;;;;;;4.75;2.70;;;23.40;99.90;;;;;;5050116;28;20036;-55
2022/05/24 09:01:59;;;;;;;4.85;2.65;;;23.70;99.90;;;;;;5052629;28;20033;-55
2022/05/24 09:04:25;;;;;;;3.72;2.35;;;23.80;99.90;;;;;;5053902;28;20025;-53
2022/05/24 09:07:18;;;;;;;5.47;2.85;;;23.70;99.90;;;;;;5054985;28;20025;-53
2022/05/24 09:10:05;;;;;;;8.38;3.10;;;23.70;99.90;;;;;;5054623;28;20472;-54
2022/05/24 09:12:52;;;;;;;8.05;3.53;;;23.40;99.90;;;;;;5054138;28;20032;-54
2022/05/24 09:15:44;;;;;;;9.52;4.10;;;23.50;99.90;;;;;;5054413;28;20013;-56
2022/05/24 09:18:22;;;;;;;7.85;3.63;;;23.30;99.90;;;;;;5047251;28;20067;-55
2022/05/24 09:20:48;;;;;;;8.93;3.20;;;23.00;99.90;;;;;;5050996;28;20064;-53
2022/05/24 09:23:41;;;;;;;11.32;3.80;;;23.00;99.90;;;;;;5062005;28;20044;-54
2022/05/24 09:26:13;;;;;;;6.22;3.60;;;23.00;99.90;;;;;;5063164;28;20476;-54
2022/05/24 09:28:53;;;;;;;5.65;3.38;;;23.10;99.90;;;;;;5063578;28;20049;-55
2022/05/24 09:31:43;;;;;;;7.20;3.35;;;22.90;99.90;;;;;;5043511;28;20075;-55
2022/05/24 09:34:18;;;;;;;5.68;3.42;;;22.70;99.90;;;;;;5039123;28;20116;-55
2022/05/24 09:36:59;;;;;;;4.00;3.60;;;22.50;99.90;;;;;;5063123;28;20099;-54
2022/05/24 09:39:37;;;;;;;7.63;4.22;;;22.40;99.90;;;;;;5063495;28;20025;-54
2022/05/24 09:42:09;;;;;;;12.13;4.32;;;22.20;99.90;;;;;;5045343;28;20562;-55
2022/05/24 09:44:56;;;;;;;10.30;4.45;;;21.90;99.90;;;;;;5062877;28;20055;-54
2022/05/24 09:47:32;;;;;;;10.00;3.47;;;21.70;99.90;;;;;;5054898;28;20060;-54
2022/05/24 09:50:22;;;;;;;7.63;3.92;;;21.20;99.90;;;;;;5057866;28;20036;-52
2022/05/24 09:53:03;;;;;;;5.03;4.05;;;20.90;99.90;;;;;;5043596;28;20025;-54
2022/05/24 09:55:43;;;;;;;10.13;3.95;;;20.50;99.90;;;;;;5043335;28;20064;-55
2022/05/24 09:58:20;;;;;;;5.63;4.28;;;20.30;99.90;;;;;;5043411;28;20033;-54
2022/05/24 10:00:51;;;;;;;9.20;4.00;;;20.10;99.90;;;;;;5042660;28;20596;-53
2022/05/24 10:03:22;;;;;;;15.95;4.20;;;20.00;99.90;;;;;;5041891;28;20552;-55
2022/05/24 10:06:21;;;;;;;11.32;4.35;;;19.80;99.90;;;;;;5043382;28;20037;-53
2022/05/24 10:08:54;;;;;;;9.68;4.25;;;19.70;99.90;;;;;;5043003;28;20064;-53
2022/05/24 10:11:41;;;;;;;8.43;4.30;;;19.70;99.90;;;;;;5042787;28;20028;-53
2022/05/24 10:14:44;;;;;;;8.90;4.80;;;19.80;99.90;;;;;;5042491;28;20859;-56
2022/05/24 10:17:29;;;;;;;8.85;4.63;;;19.80;99.90;;;;;;5042883;28;20507;-56
2022/05/24 10:20:21;;;;;;;6.07;4.07;;;19.70;99.90;;;;;;5041958;28;20064;-53
2022/05/24 10:23:03;;;;;;;5.45;3.92;;;19.60;99.90;;;;;;5042505;28;20424;-53
2022/05/24 10:26:09;;;;;;;5.60;3.28;;;19.50;99.90;;;;;;5043020;28;20392;-53
2022/05/24 10:28:50;;;;;;;5.43;3.00;;;19.30;99.90;;;;;;5042847;28;20033;-53
2022/05/24 10:31:24;;;;;;;9.00;3.20;;;19.20;99.90;;;;;;5046450;28;20032;-51
2022/05/24 10:40:43;;;;;;;5.22;2.80;;;18.80;99.90;;;;;;5053373;28;20546;-53
2022/05/24 10:43:30;;;;;;;4.80;2.90;;;18.70;99.90;;;;;;5053221;28;20059;-55
2022/05/24 10:46:01;;;;;;;8.57;3.28;;;18.60;99.90;;;;;;5053174;28;20025;-54
2022/05/24 10:48:45;;;;;;;3.10;2.80;;;18.60;99.90;;;;;;5053056;28;20465;-52
2022/05/24 10:51:29;;;;;;;3.22;2.60;;;18.70;99.90;;;;;;5053057;28;20021;-49
2022/05/24 10:54:03;;;;;;;11.82;3.33;;;18.80;99.90;;;;;;5053042;28;20029;-53
2022/05/24 10:56:55;;;;;;;11.00;4.78;;;18.70;99.90;;;;;;5052961;28;20021;-53
2022/05/24 10:59:47;;;;;;;4.55;2.90;;;18.80;99.90;;;;;;5052885;28;20021;-54
2022/05/24 11:02:44;;;;;;;6.35;2.95;;;18.70;99.90;;;;;;5052914;28;20029;-55
2022/05/24 11:05:20;;;;;;;8.05;3.88;;;19.10;99.90;;;;;;5052595;28;20372;-54
2022/05/24 11:07:50;;;;;;;7.65;3.63;;;19.30;99.90;;;;;;5052679;28;20029;-54
2022/05/24 11:10:39;;;;;;;6.10;3.03;;;19.50;99.90;;;;;;5051360;28;20487;-54
2022/05/24 11:13:11;;;;;;;8.07;3.05;;;19.50;99.90;;;;;;5051223;28;20520;-53
2022/05/24 11:15:54;;;;;;;3.80;2.50;;;19.30;99.90;;;;;;5052571;28;20021;-56
2022/05/24 11:18:24;;;;;;;4.50;2.97;;;19.20;99.90;;;;;;5052630;28;20040;-55
2022/05/24 11:21:06;;;;;;;8.38;2.80;;;19.00;99.90;;;;;;5052448;28;20029;-53
2022/05/24 11:23:38;;;;;;;5.63;3.38;;;19.00;99.90;;;;;;5051967;28;20128;-52
2022/05/24 11:26:24;;;;;;;6.10;3.28;;;19.00;99.90;;;;;;5051812;28;20079;-52
2022/05/24 11:29:24;;;;;;;7.75;3.08;;;18.70;99.90;;;;;;5052434;28;20122;-55
2022/05/24 11:31:57;;;;;;;9.18;3.47;;;18.60;99.90;;;;;;5052253;28;20051;-53
2022/05/24 11:34:31;;;;;;;7.15;4.40;;;18.70;99.90;;;;;;5052259;28;20405;-55
2022/05/24 11:37:04;;;;;;;5.72;2.97;;;18.90;99.90;;;;;;5052200;28;20090;-53
2022/05/24 11:39:37;;;;;;;9.27;2.17;;;19.20;99.90;;;;;;5051008;28;20021;-52
2022/05/24 11:42:21;;;;;;;6.75;3.17;;;19.40;99.90;;;;;;5052033;28;20029;-52
2022/05/24 11:44:48;;;;;;;3.03;2.30;;;19.50;99.90;;;;;;5046291;28;20032;-54
2022/05/24 11:47:46;;;;;;;6.20;2.63;;;19.10;99.90;;;;;;5041666;28;20025;-56
2022/05/24 11:50:42;;;;;;;4.20;1.85;;;19.00;99.90;;;;;;5033448;28;20365;-54
2022/05/24 11:53:28;;;;;;;6.22;2.30;;;18.50;99.90;;;;;;5038940;28;20392;-52
2022/05/24 11:55:57;;;;;;;3.28;2.38;;;18.50;99.90;;;;;;5040830;28;20045;-52
2022/05/24 11:58:23;;;;;;;3.47;1.52;;;18.30;99.90;;;;;;5041473;28;20020;-56
2022/05/24 12:01:08;;;;;;;1.67;1.40;;;18.10;99.90;;;;;;5040632;28;20025;-51
2022/05/24 12:09:23;;;;;;;3.30;1.65;;;17.80;99.90;;;;;;5041119;28;20072;-55
2022/05/24 12:12:24;;;;;;;9.70;2.00;;;18.00;99.90;;;;;;5040838;28;20032;-51
2022/05/24 12:15:16;;;;;;;3.97;1.95;;;18.00;99.90;;;;;;5018094;28;20033;-53
2022/05/24 12:17:44;;;;;;;1.63;1.50;;;18.30;99.90;;;;;;5039689;28;20392;-52
2022/05/24 12:20:48;;;;;;;9.60;1.65;;;18.50;99.90;;;;;;5040713;28;20071;-54
2022/05/24 12:23:14;;;;;;;8.35;1.70;;;18.60;99.90;;;;;;5040819;28;20053;-55
2022/05/24 12:25:58;;;;;;;2.22;1.60;;;18.80;99.90;;;;;;5040563;28;20049;-54
2022/05/24 12:28:35;;;;;;;5.60;2.60;;;18.60;99.90;;;;;;5040363;28;20082;-51
2022/05/24 12:31:17;;;;;;;3.15;2.25;;;18.00;99.90;;;;;;5039979;28;20033;-55
2022/05/24 12:33:55;;;;;;;5.15;2.83;;;18.10;99.90;;;;;;5039996;28;20128;-53
2022/05/24 12:36:30;;;;;;;1.70;1.60;;;18.00;99.90;;;;;;5044075;28;20028;-55
2022/05/24 12:39:01;;;;;;;2.67;1.60;;;17.80;99.90;;;;;;5047451;28;20036;-52
2022/05/24 12:41:32;;;;;;;2.05;1.35;;;17.80;99.90;;;;;;5047193;28;20419;-50
2022/05/24 12:44:11;;;;;;;1.88;1.23;;;17.60;99.90;;;;;;5047530;28;20061;-54
2022/05/24 12:46:37;;;;;;;2.88;1.98;;;17.70;99.90;;;;;;5047599;28;20021;-54
2022/05/24 12:49:15;;;;;;;1.50;1.40;;;17.80;99.90;;;;;;5049523;28;20025;-55
2022/05/24 12:51:42;;;;;;;4.97;1.70;;;17.70;99.90;;;;;;5057621;28;20360;-56
2022/05/24 12:54:10;;;;;;;4.53;2.20;;;17.70;99.90;;;;;;5057918;28;20017;-54
2022/05/24 12:56:35;;;;;;;4.03;0.98;;;17.70;99.90;;;;;;5057800;28;20025;-53
2022/05/24 12:59:10;;;;;;;2.25;1.10;;;17.70;99.90;;;;;;5057609;28;20025;-55
2022/05/24 13:01:41;;;;;;;5.90;1.38;;;17.80;99.90;;;;;;5057563;28;20021;-56
2022/05/24 13:04:27;;;;;;;1.48;1.10;;;17.70;99.90;;;;;;5057600;28;20395;-53
2022/05/24 13:06:54;;;;;;;1.35;1.10;;;17.60;99.90;;;;;;5057547;28;20024;-54
2022/05/24 13:09:32;;;;;;;0.95;0.95;;;17.70;99.90;;;;;;5057635;28;20016;-55
2022/05/24 13:12:04;;;;;;;1.30;0.95;;;18.00;99.90;;;;;;5057100;28;20120;-54
2022/05/24 13:15:05;;;;;;;1.23;1.13;;;18.10;99.90;;;;;;5055626;28;20499;-50
2022/05/24 13:17:39;;;;;;;2.63;1.10;;;17.90;99.90;;;;;;5056850;28;20025;-50
2022/05/24 13:20:10;;;;;;;3.92;1.92;;;18.00;99.90;;;;;;5056943;28;20044;-51
2022/05/24 13:22:48;;;;;;;1.65;1.20;;;18.20;99.90;;;;;;5057202;28;20051;-51
2022/05/24 13:25:18;;;;;;;6.82;1.27;;;18.10;99.90;;;;;;5057088;28;20083;-50
2022/05/24 13:27:51;;;;;;;3.80;1.30;;;18.20;99.90;;;;;;5056658;28;20104;-49
2022/05/24 13:35:51;;;;;;;2.58;1.38;;;18.10;99.90;;;;;;5057233;28;20114;-51
2022/05/24 13:38:24;;;;;;;1.20;1.05;;;18.20;99.90;;;;;;5057213;28;20056;-52
2022/05/24 13:40:54;;;;;;;;;;;18.50;99.90;;;;;;5056386;28;20092;-54
2022/05/24 13:43:41;;;;;;;7.47;1.63;;;18.30;99.90;;;;;;5056046;28;20271;-49
2022/05/24 13:46:15;;;;;;;1.75;1.42;;;18.40;99.90;;;;;;5056033;28;20036;-53